Airfield :
LOGIN :

Register | Disclaimer

   EN    FR    IT 

 










Legend :    VFR   Marginal VFR   IFR   Intensive IFR   Very Intensive IFR
Visi :
Ceiling :
>= 8 km
>= 3000ft
5 to 8 km
1000 to 3000 ft
1500m to 5 km
500 to 1000 ft
800 to 1500m
200 to 500 ft
< 800m
< 200 ft
Symbols :   Thunderstorms  Fog  Heavy snow  Heavy precipitations  Wind > 20 kt
SIGMETs :     Misc.  Thunderstorms  Icing  Turbulence  Mountain Waves  Volcanic Ashes







- Airport Elevation : 1416 ft
- IATA code : ZRH


LSZH - Zurich

CURRENT METAR :
  • 191320Z 30013KT 9999 FEW018 BKN053 06/02 Q1020 NOSIG

EXPIRED METARs :
  • 191250Z 29011KT 9999 FEW015 SCT045 BKN055 05/01 Q1020 NOSIG
  • 191220Z 28010KT 9999 VCSH FEW013 SCT030 BKN045 05/02 Q1021 NOSIG
  • 191150Z 27007KT 9999 VCSH FEW005 SCT014 BKN040 04/02 Q1021 TEMPO SHRA
  • 191120Z 28011KT 9000 -DZ FEW008 BKN014 BKN025 04/01 Q1020 BECMG SCT014
  • 191050Z 27005KT 7000 -DZ SCT007 BKN014 04/03 Q1020 BECMG BKN015

TAF TAF LSZH
Valid from the 19 at 12:00 until the 20 at 18:00 UTC


191125Z 1912/2018 27008KT 9999 SCT010 BKN025 TX05/1914Z TNM02/2003Z TX05/2014Z
PROB40
TEMPO 1912/1916 SHRA
BECMG 1918/1921 VRB03KT 4000 BR SCT020
BECMG 1921/1924 1500 BCFG
PROB40 2000/2006 0400 FZFG VV001
BECMG 2007/2010 6000 BKN070
ATIS : +41 43 816 2295 (DEP) +41 43 816 2294 (ARR)
No reported NOTAMs for that airfield.



MET'MAP, your aeronautical weather chart ! - Copyright ORBIFLY December 2007 - Disclaimer

ORBIFLY MET'MAP TEAM :

Programming & Development : Alexandra Zaïnal
Concept & Development : Baudouin d'Aumeries
Co-Development & Prog : Marc-Olivier Méhu
Technical & hardware support : Manuel Goepfert

Contact : metmap@orbifly.com




SOURCES & CREDITS :

   NOAA